createdAt,value
2023-04-13T04:01:50.003Z,8.60
2023-04-13T04:04:21.915Z,8.50
2023-04-13T04:06:53.779Z,8.40
2023-04-13T04:09:25.691Z,8.40
2023-04-13T04:11:57.413Z,8.40
2023-04-13T04:14:29.104Z,8.40
2023-04-13T04:17:02.126Z,8.40
2023-04-13T04:19:33.866Z,8.30
2023-04-13T04:22:05.512Z,8.40
2023-04-13T04:24:37.180Z,8.40
2023-04-13T04:27:08.873Z,8.40
2023-04-13T04:29:40.641Z,8.40
2023-04-13T04:32:13.882Z,8.40
2023-04-13T04:34:45.698Z,8.40
2023-04-13T04:37:20.735Z,8.40
2023-04-13T04:39:52.753Z,8.30
2023-04-13T04:42:24.505Z,8.40
2023-04-13T04:44:56.182Z,8.40
2023-04-13T04:47:29.216Z,8.40
2023-04-13T04:50:00.925Z,8.40
2023-04-13T04:52:32.600Z,8.40
2023-04-13T04:55:04.997Z,8.40
2023-04-13T04:57:36.664Z,8.40
2023-04-13T05:00:09.491Z,8.50
2023-04-13T05:02:42.680Z,8.50
2023-04-13T05:05:14.497Z,8.50
2023-04-13T05:07:46.203Z,8.50
2023-04-13T05:10:17.962Z,8.50
2023-04-13T05:12:49.670Z,8.50
2023-04-13T05:15:21.436Z,8.60
2023-04-13T05:17:54.715Z,8.60
2023-04-13T05:20:26.413Z,8.60
2023-04-13T05:22:58.126Z,8.70
2023-04-13T05:25:29.889Z,8.70
2023-04-13T05:28:01.628Z,8.70
2023-04-13T05:30:33.395Z,8.70
2023-04-13T05:33:06.582Z,8.70
2023-04-13T05:35:38.331Z,8.70
2023-04-13T05:38:10.237Z,8.80
2023-04-13T05:40:41.931Z,8.80
2023-04-13T05:43:13.586Z,8.90
2023-04-13T05:45:45.356Z,8.80
2023-04-13T05:48:18.364Z,8.80
2023-04-13T05:50:50.055Z,8.80
2023-04-13T05:53:21.716Z,8.80
2023-04-13T05:55:53.932Z,8.80
2023-04-13T05:58:25.659Z,10.20
2023-04-13T06:00:57.407Z,8.80
2023-04-13T06:03:30.740Z,8.80
2023-04-13T06:06:02.550Z,8.70
2023-04-13T06:08:34.298Z,8.70
2023-04-13T06:11:06.599Z,8.70
2023-04-13T06:13:38.350Z,8.70
2023-04-13T06:16:10.256Z,8.70
2023-04-13T06:18:43.347Z,8.70
2023-04-13T06:21:15.000Z,8.70
2023-04-13T06:23:46.757Z,8.80
2023-04-13T06:26:18.409Z,8.80
2023-04-13T06:28:50.123Z,8.90
2023-04-13T06:31:21.823Z,9.00
2023-04-13T06:33:54.876Z,9.00
2023-04-13T06:36:26.539Z,9.10
2023-04-13T06:38:58.447Z,9.20
2023-04-13T06:41:30.269Z,9.20
2023-04-13T06:44:01.951Z,9.30
2023-04-13T06:46:33.717Z,9.40
2023-04-13T06:49:06.873Z,9.50
2023-04-13T06:51:38.547Z,9.70
2023-04-13T06:54:10.238Z,9.90
2023-04-13T06:56:41.908Z,10.10
2023-04-13T06:59:13.640Z,10.40
2023-04-13T07:01:45.394Z,11.20
2023-04-13T07:04:18.575Z,12.00
2023-04-13T07:06:50.276Z,12.30
2023-04-13T07:09:21.957Z,12.30
2023-04-13T07:11:53.634Z,12.40
2023-04-13T07:14:25.439Z,12.50
2023-04-13T07:16:57.113Z,12.90
2023-04-13T07:19:31.211Z,13.40
2023-04-13T07:22:02.907Z,14.00
2023-04-13T07:24:34.607Z,14.00
2023-04-13T07:27:06.264Z,13.70
2023-04-13T07:29:37.976Z,13.30
2023-04-13T07:32:09.631Z,13.00
2023-04-13T07:34:42.666Z,13.00
2023-04-13T07:37:14.347Z,13.00
2023-04-13T07:39:46.037Z,13.00
2023-04-13T07:42:17.715Z,12.80
2023-04-13T07:44:49.366Z,12.70
2023-04-13T07:47:21.066Z,12.60
2023-04-13T07:49:54.092Z,12.40
2023-04-13T07:52:25.893Z,12.20
2023-04-13T07:54:57.544Z,12.00
2023-04-13T07:57:29.240Z,11.70
2023-04-13T08:00:00.977Z,11.60
2023-04-13T08:02:32.760Z,11.50
2023-04-13T08:05:07.268Z,11.30
2023-04-13T08:07:39.227Z,11.20
2023-04-13T08:10:10.942Z,11.10
2023-04-13T08:12:42.623Z,11.10
2023-04-13T08:15:14.344Z,11.10
2023-04-13T08:17:46.546Z,11.10
2023-04-13T08:20:19.592Z,11.10
2023-04-13T08:22:51.269Z,11.00
2023-04-13T08:25:23.128Z,11.00
2023-04-13T08:27:54.851Z,11.00
2023-04-13T08:30:26.590Z,11.00
2023-04-13T08:32:58.383Z,11.00
2023-04-13T08:35:31.551Z,11.10
2023-04-13T08:38:03.245Z,11.20
2023-04-13T08:40:36.880Z,11.20
2023-04-13T08:43:08.865Z,11.20
2023-04-13T08:45:41.210Z,11.10
2023-04-13T08:48:13.601Z,11.10
2023-04-13T08:50:46.736Z,11.10
2023-04-13T08:53:18.394Z,11.30
2023-04-13T08:55:50.040Z,11.30
2023-04-13T08:58:21.742Z,11.40
2023-04-13T09:00:53.496Z,11.50
2023-04-13T09:03:25.548Z,11.70
2023-04-13T09:06:01.277Z,11.80
2023-04-13T09:08:33.221Z,11.80
2023-04-13T09:11:05.089Z,11.80
2023-04-13T09:13:36.773Z,11.80
2023-04-13T09:16:08.422Z,11.80
2023-04-13T09:18:49.229Z,11.80
2023-04-13T09:21:22.410Z,11.90
2023-04-13T09:23:54.981Z,12.00
2023-04-13T09:26:26.684Z,12.00
2023-04-13T09:28:58.802Z,12.00
2023-04-13T09:31:33.050Z,11.90
2023-04-13T09:34:04.850Z,11.80
2023-04-13T09:36:49.646Z,11.60
2023-04-13T09:39:25.377Z,11.60
2023-04-13T09:41:57.068Z,11.70
2023-04-13T09:44:28.934Z,11.90
2023-04-13T09:47:01.714Z,12.20
2023-04-13T09:49:39.597Z,12.50
2023-04-13T09:52:19.915Z,12.70
2023-04-13T09:54:51.934Z,12.70
2023-04-13T09:57:24.058Z,12.80
2023-04-13T09:59:56.197Z,13.00
2023-04-13T10:02:28.260Z,13.10
2023-04-13T10:05:00.275Z,13.30
2023-04-13T10:07:33.313Z,13.70
2023-04-13T10:10:05.738Z,13.90
2023-04-13T10:12:38.896Z,14.00
2023-04-13T10:15:14.853Z,14.20
2023-04-13T10:17:51.107Z,14.10
2023-04-13T10:20:22.803Z,13.90
2023-04-13T10:22:55.816Z,13.60
2023-04-13T10:25:33.536Z,13.20
2023-04-13T10:28:06.810Z,12.70
2023-04-13T10:30:48.592Z,12.60
2023-04-13T10:33:20.374Z,12.80
2023-04-13T10:35:55.297Z,13.20
2023-04-13T10:38:28.318Z,13.50
2023-04-13T10:40:59.990Z,13.60
2023-04-13T10:43:32.043Z,13.60
2023-04-13T10:46:07.623Z,13.80
2023-04-13T10:48:40.771Z,13.80
2023-04-13T10:51:12.421Z,13.90
2023-04-13T10:53:45.538Z,14.00
2023-04-13T10:56:17.224Z,14.20
2023-04-13T10:58:52.176Z,14.30
2023-04-13T11:01:23.872Z,14.30
2023-04-13T11:04:04.886Z,14.40
2023-04-13T11:06:38.723Z,14.60
2023-04-13T11:09:15.182Z,14.60
2023-04-13T11:11:51.368Z,14.50
2023-04-13T11:14:23.043Z,14.40
2023-04-13T11:16:58.452Z,14.20
2023-04-13T11:19:30.346Z,14.20
2023-04-13T11:22:02.035Z,14.00
2023-04-13T11:24:35.122Z,14.00
2023-04-13T11:27:16.538Z,14.00
2023-04-13T11:29:57.225Z,14.10
2023-04-13T11:32:29.021Z,14.20
2023-04-13T11:35:07.322Z,14.20
2023-04-13T11:37:39.212Z,14.20
2023-04-13T11:40:12.412Z,14.40
2023-04-13T11:42:45.397Z,14.60
2023-04-13T11:45:19.056Z,14.90
2023-04-13T11:47:52.455Z,15.00
2023-04-13T11:50:24.356Z,15.20
2023-04-13T11:52:56.035Z,15.10
2023-04-13T11:55:30.162Z,14.90
2023-04-13T11:58:06.084Z,14.90
2023-04-13T12:00:38.563Z,14.90
2023-04-13T12:03:34.608Z,14.80
2023-04-13T12:06:05.966Z,14.80
2023-04-13T12:08:38.089Z,14.80
2023-04-13T12:13:52.386Z,14.80
2023-04-13T12:17:01.840Z,14.80
2023-04-13T12:19:24.016Z,15.00
2023-04-13T12:22:00.232Z,15.10
2023-04-13T12:24:32.886Z,15.10
2023-04-13T12:29:40.929Z,15.40
2023-04-13T12:32:13.023Z,15.60
2023-04-13T12:34:44.707Z,15.70
2023-04-13T12:37:16.386Z,15.70
2023-04-13T12:39:48.068Z,15.80
2023-04-13T12:42:21.140Z,15.80
2023-04-13T12:44:52.799Z,15.80
2023-04-13T12:47:24.600Z,15.70
2023-04-13T12:49:56.329Z,15.70
2023-04-13T12:52:28.014Z,15.50
2023-04-13T12:54:59.724Z,15.60
2023-04-13T12:57:32.775Z,15.50
2023-04-13T13:00:05.578Z,15.60
2023-04-13T13:02:37.303Z,15.80
2023-04-13T13:05:09.461Z,15.70
2023-04-13T13:07:41.231Z,15.80
2023-04-13T13:10:28.934Z,15.90
2023-04-13T13:13:02.882Z,15.90
2023-04-13T13:15:34.552Z,16.00
2023-04-13T13:18:06.350Z,15.80
2023-04-13T13:20:38.080Z,15.70
2023-04-13T13:23:10.107Z,15.60
2023-04-13T13:25:46.259Z,15.50
2023-04-13T13:28:30.362Z,15.40
2023-04-13T13:31:02.017Z,15.20
2023-04-13T13:33:33.751Z,15.00
2023-04-13T13:36:05.988Z,15.00
2023-04-13T13:38:37.681Z,14.90
2023-04-13T13:41:09.349Z,14.90
2023-04-13T13:43:42.413Z,14.90
2023-04-13T13:46:14.163Z,14.90
2023-04-13T13:48:45.966Z,14.80
2023-04-13T13:51:17.598Z,14.80
2023-04-13T13:53:49.309Z,14.80
2023-04-13T13:56:20.974Z,14.90
2023-04-13T13:58:53.990Z,14.80
2023-04-13T14:01:25.725Z,15.00
2023-04-13T14:03:58.520Z,15.20
2023-04-13T14:06:30.280Z,15.30
2023-04-13T14:09:02.268Z,15.30
2023-04-13T14:11:34.369Z,15.50
2023-04-13T14:14:18.265Z,15.60
2023-04-13T14:16:52.598Z,15.70
2023-04-13T14:19:24.265Z,15.70
2023-04-13T14:21:55.954Z,15.70
2023-04-13T14:26:59.627Z,15.80
2023-04-13T14:29:32.630Z,15.80
2023-04-13T14:32:04.433Z,15.50
2023-04-13T14:34:36.190Z,15.50
2023-04-13T14:37:07.868Z,15.40
2023-04-13T14:39:39.561Z,15.50
2023-04-13T14:42:11.227Z,15.40
2023-04-13T14:44:44.227Z,15.40
2023-04-13T14:47:16.249Z,15.40
2023-04-13T14:49:48.072Z,15.30
2023-04-13T14:52:19.776Z,15.30
2023-04-13T14:54:55.044Z,15.20
2023-04-13T14:57:27.066Z,15.10
2023-04-13T15:00:00.142Z,15.10
2023-04-13T15:02:32.154Z,15.10
2023-04-13T15:05:04.320Z,15.10
2023-04-13T15:07:36.092Z,15.10
2023-04-13T15:10:08.724Z,15.10
2023-04-13T15:12:40.454Z,15.00
2023-04-13T15:15:13.454Z,15.00
2023-04-13T15:17:45.147Z,15.00
2023-04-13T15:20:16.974Z,14.90
2023-04-13T15:22:48.662Z,14.90
2023-04-13T15:25:20.396Z,14.80
2023-04-13T15:27:52.257Z,14.80
2023-04-13T15:30:26.005Z,14.80
2023-04-13T15:32:58.753Z,14.70
2023-04-13T15:35:30.578Z,14.70
2023-04-13T15:38:02.507Z,14.60
2023-04-13T15:40:34.205Z,14.70
2023-04-13T15:43:05.975Z,14.70
2023-04-13T15:45:39.117Z,14.70
2023-04-13T15:48:10.832Z,14.60
2023-04-13T15:50:42.510Z,14.60
2023-04-13T15:53:14.214Z,14.60
2023-04-13T15:55:45.880Z,14.50
2023-04-13T15:58:17.538Z,14.40
2023-04-13T16:01:00.006Z,14.40
2023-04-13T16:03:31.882Z,14.30
2023-04-13T16:06:04.104Z,14.30
2023-04-13T16:08:35.774Z,14.30
2023-04-13T16:11:07.465Z,14.30
2023-04-13T16:13:48.114Z,14.20
2023-04-13T16:16:22.752Z,14.50
2023-04-13T16:18:54.463Z,14.30
2023-04-13T16:21:26.666Z,14.30
2023-04-13T16:23:58.310Z,14.30
2023-04-13T16:26:29.998Z,14.40
2023-04-13T16:29:02.130Z,14.40
2023-04-13T16:31:35.595Z,14.40
2023-04-13T16:34:22.424Z,14.30
2023-04-13T16:36:57.048Z,14.30
2023-04-13T16:39:28.756Z,14.20
2023-04-13T16:42:00.434Z,14.20
2023-04-13T16:44:32.094Z,14.20
2023-04-13T16:47:05.235Z,14.20
2023-04-13T16:49:36.918Z,14.10
2023-04-13T16:54:42.783Z,14.00
2023-04-13T16:57:14.459Z,14.00
2023-04-13T16:59:46.553Z,14.00
2023-04-13T17:04:56.266Z,14.00
2023-04-13T17:09:59.955Z,14.00
2023-04-13T17:12:31.811Z,13.90
2023-04-13T17:15:04.153Z,13.90
2023-04-13T17:17:37.217Z,13.90
2023-04-13T17:20:09.651Z,13.80
2023-04-13T17:22:41.337Z,13.80
2023-04-13T17:25:13.001Z,13.70
2023-04-13T17:27:44.702Z,13.60
2023-04-13T17:30:16.419Z,13.60
2023-04-13T17:32:49.464Z,13.60
2023-04-13T17:35:21.247Z,13.60
2023-04-13T17:40:25.156Z,13.50
2023-04-13T17:42:56.843Z,13.40
2023-04-13T17:45:28.600Z,13.40
2023-04-13T17:50:34.012Z,13.20
2023-04-13T17:53:05.719Z,13.10
2023-04-13T17:55:37.953Z,13.00
2023-04-13T18:00:41.667Z,12.80
2023-04-13T18:03:14.870Z,12.70
2023-04-13T18:08:18.816Z,12.50
2023-04-13T18:10:50.494Z,12.40
2023-04-13T18:13:22.152Z,12.30
2023-04-13T18:15:53.964Z,12.30
2023-04-13T18:18:27.069Z,12.10
2023-04-13T18:20:58.731Z,12.00
2023-04-13T18:23:30.389Z,12.00
2023-04-13T18:26:02.069Z,11.90
2023-04-13T18:28:34.666Z,11.80
2023-04-13T18:31:06.406Z,11.70
2023-04-13T18:33:39.436Z,11.70
2023-04-13T18:36:14.036Z,11.60
2023-04-13T18:38:45.747Z,11.60
2023-04-13T18:41:17.441Z,11.50
2023-04-13T18:43:49.114Z,11.40
2023-04-13T18:46:20.808Z,11.40
2023-04-13T18:48:53.853Z,11.30
2023-04-13T18:51:25.572Z,11.30
2023-04-13T18:53:57.503Z,11.30
2023-04-13T18:56:29.342Z,11.30
2023-04-13T18:59:00.992Z,11.30
2023-04-13T19:01:32.712Z,11.20
2023-04-13T19:04:06.018Z,11.20
2023-04-13T19:06:38.153Z,11.10
2023-04-13T19:09:09.803Z,11.10
2023-04-13T19:11:45.237Z,11.10
2023-04-13T19:14:16.913Z,11.10
2023-04-13T19:16:48.691Z,11.10
2023-04-13T19:19:21.769Z,11.10
2023-04-13T19:21:53.456Z,11.10
2023-04-13T19:24:25.142Z,11.10
2023-04-13T19:26:56.828Z,11.20
2023-04-13T19:29:28.491Z,11.20
2023-04-13T19:32:00.259Z,11.20
2023-04-13T19:34:33.347Z,11.10
2023-04-13T19:37:05.002Z,11.10
2023-04-13T19:39:36.690Z,11.00
2023-04-13T19:42:08.375Z,11.10
2023-04-13T19:44:40.023Z,11.00
2023-04-13T19:47:11.776Z,11.00
2023-04-13T19:49:44.761Z,11.00
2023-04-13T19:52:16.459Z,11.00
2023-04-13T19:54:48.159Z,11.00
2023-04-13T19:57:19.844Z,11.10
2023-04-13T19:59:51.530Z,11.10
2023-04-13T20:02:23.390Z,11.20
2023-04-13T20:04:56.478Z,11.10
2023-04-13T20:07:28.145Z,11.00
2023-04-13T20:09:59.807Z,10.90
2023-04-13T20:12:31.481Z,10.80
2023-04-13T20:15:03.276Z,10.70
2023-04-13T20:17:34.986Z,10.60
2023-04-13T20:20:09.037Z,10.50
2023-04-13T20:22:40.724Z,10.40
2023-04-13T20:25:12.386Z,10.30
2023-04-13T20:27:44.151Z,10.20
2023-04-13T20:30:15.965Z,10.10
2023-04-13T20:32:47.693Z,10.00
2023-04-13T20:35:20.808Z,10.00
2023-04-13T20:37:52.468Z,9.90
2023-04-13T20:40:26.595Z,9.90
2023-04-13T20:42:58.823Z,9.80
2023-04-13T20:45:30.497Z,9.80
2023-04-13T20:48:48.387Z,9.70
2023-04-13T20:50:55.146Z,9.70
2023-04-13T20:53:26.803Z,9.60
2023-04-13T20:55:58.476Z,9.60
2023-04-13T20:58:30.130Z,9.60
2023-04-13T21:01:01.900Z,9.60
2023-04-13T21:03:34.247Z,9.50
2023-04-13T21:06:07.470Z,9.50
2023-04-13T21:08:39.169Z,9.50
2023-04-13T21:11:10.852Z,9.50
2023-04-13T21:13:42.558Z,9.50
2023-04-13T21:16:14.287Z,9.50
2023-04-13T21:18:46.628Z,9.50
2023-04-13T21:21:20.561Z,9.50
2023-04-13T21:23:52.413Z,9.50
2023-04-13T21:26:24.090Z,9.50
2023-04-13T21:28:55.752Z,9.50
2023-04-13T21:31:27.557Z,9.40
2023-04-13T21:33:59.545Z,9.40
2023-04-13T21:39:07.495Z,9.40
2023-04-13T21:41:39.475Z,9.40
2023-04-13T21:44:22.565Z,9.30
2023-04-13T21:46:58.149Z,9.40
2023-04-13T21:49:29.798Z,9.40
2023-04-13T21:52:02.828Z,9.40
2023-04-13T21:54:34.478Z,9.40
2023-04-13T21:57:06.425Z,9.40
2023-04-13T21:59:38.087Z,9.40
